Terminal Aerodrome Forecast
Issued by NWS

Home | Current Version | Previous Version | Text Only | Print | Product List | Glossary On
Versions: 1 2 3 4 5 6 7 8 9 10 11 12 13 14 15
000
FTUS45 KGJT 262106 AAA
TAFASE
TAF AMD
KASE 262106Z 2621/2718 12010G18KT P6SM VCSH BKN120
     FM262200 33008G18KT P6SM VCTS SCT070CB BKN120
      TEMPO 2623/2703 VRB15G30KT TS BKN080CB
     FM270300 21005KT P6SM FEW080 SCT200
     FM271500 VRB03KT P6SM SCT250=

USA.gov is the U.S. government's official web portal to all federal, state and local government web resources and services.